sensor_id;sensor_type;location;lat;lon;timestamp;P1;durP1;ratioP1;P2;durP2;ratioP2
10465;SDS011;5280;42.600;23.556;2022-12-20T00:01:31;8.43;;;5.30;;
10465;SDS011;5280;42.600;23.556;2022-12-20T00:04:01;7.77;;;5.30;;
10465;SDS011;5280;42.600;23.556;2022-12-20T00:06:30;7.93;;;5.60;;
10465;SDS011;5280;42.600;23.556;2022-12-20T00:09:00;8.30;;;5.40;;
10465;SDS011;5280;42.600;23.556;2022-12-20T00:11:29;8.27;;;5.63;;
10465;SDS011;5280;42.600;23.556;2022-12-20T00:13:56;8.57;;;5.40;;
10465;SDS011;5280;42.600;23.556;2022-12-20T00:16:24;8.57;;;5.53;;
10465;SDS011;5280;42.600;23.556;2022-12-20T00:18:53;7.97;;;5.37;;
10465;SDS011;5280;42.600;23.556;2022-12-20T00:21:21;7.90;;;4.60;;
10465;SDS011;5280;42.600;23.556;2022-12-20T00:23:49;6.80;;;4.73;;
10465;SDS011;5280;42.600;23.556;2022-12-20T00:26:19;7.73;;;5.20;;
10465;SDS011;5280;42.600;23.556;2022-12-20T00:28:47;7.43;;;4.93;;
10465;SDS011;5280;42.600;23.556;2022-12-20T00:31:14;7.37;;;5.63;;
10465;SDS011;5280;42.600;23.556;2022-12-20T00:33:44;7.43;;;5.30;;
10465;SDS011;5280;42.600;23.556;2022-12-20T00:36:12;7.57;;;5.30;;
10465;SDS011;5280;42.600;23.556;2022-12-20T00:38:39;7.50;;;4.73;;
10465;SDS011;5280;42.600;23.556;2022-12-20T00:41:07;7.97;;;5.47;;
10465;SDS011;5280;42.600;23.556;2022-12-20T00:43:39;7.63;;;4.73;;
10465;SDS011;5280;42.600;23.556;2022-12-20T00:46:07;7.53;;;5.27;;
10465;SDS011;5280;42.600;23.556;2022-12-20T00:48:35;7.77;;;5.37;;
10465;SDS011;5280;42.600;23.556;2022-12-20T00:51:03;6.23;;;4.80;;
10465;SDS011;5280;42.600;23.556;2022-12-20T00:53:32;8.23;;;5.23;;
10465;SDS011;5280;42.600;23.556;2022-12-20T00:56:02;8.33;;;4.80;;
10465;SDS011;5280;42.600;23.556;2022-12-20T00:58:30;9.10;;;5.10;;
10465;SDS011;5280;42.600;23.556;2022-12-20T01:00:59;7.17;;;4.77;;
10465;SDS011;5280;42.600;23.556;2022-12-20T01:03:26;6.53;;;4.83;;
10465;SDS011;5280;42.600;23.556;2022-12-20T01:05:53;8.67;;;5.60;;
10465;SDS011;5280;42.600;23.556;2022-12-20T01:08:21;11.33;;;5.50;;
10465;SDS011;5280;42.600;23.556;2022-12-20T01:10:56;6.70;;;5.20;;
10465;SDS011;5280;42.600;23.556;2022-12-20T01:13:24;8.07;;;4.83;;
10465;SDS011;5280;42.600;23.556;2022-12-20T01:15:50;6.83;;;5.00;;
10465;SDS011;5280;42.600;23.556;2022-12-20T01:18:19;6.43;;;5.07;;
10465;SDS011;5280;42.600;23.556;2022-12-20T01:20:45;8.57;;;5.40;;
10465;SDS011;5280;42.600;23.556;2022-12-20T01:23:12;8.53;;;5.20;;
10465;SDS011;5280;42.600;23.556;2022-12-20T01:25:39;6.80;;;4.97;;
10465;SDS011;5280;42.600;23.556;2022-12-20T01:28:05;7.47;;;4.87;;
10465;SDS011;5280;42.600;23.556;2022-12-20T01:30:32;7.63;;;5.20;;
10465;SDS011;5280;42.600;23.556;2022-12-20T01:32:59;8.53;;;5.03;;
10465;SDS011;5280;42.600;23.556;2022-12-20T01:35:27;8.57;;;5.63;;
10465;SDS011;5280;42.600;23.556;2022-12-20T01:37:54;8.67;;;5.70;;
10465;SDS011;5280;42.600;23.556;2022-12-20T01:40:20;7.90;;;4.97;;
10465;SDS011;5280;42.600;23.556;2022-12-20T01:42:47;7.80;;;5.20;;
10465;SDS011;5280;42.600;23.556;2022-12-20T01:45:17;9.20;;;5.57;;
10465;SDS011;5280;42.600;23.556;2022-12-20T01:47:50;9.63;;;5.43;;
10465;SDS011;5280;42.600;23.556;2022-12-20T01:50:17;9.57;;;5.47;;
10465;SDS011;5280;42.600;23.556;2022-12-20T01:52:46;6.67;;;5.03;;
10465;SDS011;5280;42.600;23.556;2022-12-20T01:55:14;7.53;;;5.47;;
10465;SDS011;5280;42.600;23.556;2022-12-20T01:57:44;8.53;;;5.67;;
10465;SDS011;5280;42.600;23.556;2022-12-20T02:00:16;8.57;;;5.70;;
10465;SDS011;5280;42.600;23.556;2022-12-20T02:02:47;11.77;;;5.60;;
10465;SDS011;5280;42.600;23.556;2022-12-20T02:05:15;7.87;;;5.07;;
10465;SDS011;5280;42.600;23.556;2022-12-20T02:07:46;8.27;;;5.43;;
10465;SDS011;5280;42.600;23.556;2022-12-20T02:10:16;9.33;;;4.97;;
10465;SDS011;5280;42.600;23.556;2022-12-20T02:12:45;9.67;;;5.80;;
10465;SDS011;5280;42.600;23.556;2022-12-20T02:15:20;7.23;;;5.27;;
10465;SDS011;5280;42.600;23.556;2022-12-20T02:18:01;8.07;;;5.30;;
10465;SDS011;5280;42.600;23.556;2022-12-20T02:24:04;9.10;;;6.27;;
10465;SDS011;5280;42.600;23.556;2022-12-20T02:27:08;10.53;;;6.53;;
10465;SDS011;5280;42.600;23.556;2022-12-20T02:30:09;8.43;;;5.97;;
10465;SDS011;5280;42.600;23.556;2022-12-20T02:32:42;8.17;;;5.50;;
10465;SDS011;5280;42.600;23.556;2022-12-20T02:35:17;9.60;;;5.80;;
10465;SDS011;5280;42.600;23.556;2022-12-20T02:37:48;10.17;;;6.13;;
10465;SDS011;5280;42.600;23.556;2022-12-20T02:40:16;7.97;;;5.60;;
10465;SDS011;5280;42.600;23.556;2022-12-20T02:42:47;9.20;;;6.27;;
10465;SDS011;5280;42.600;23.556;2022-12-20T02:45:18;8.63;;;5.50;;
10465;SDS011;5280;42.600;23.556;2022-12-20T02:47:48;7.50;;;5.40;;
10465;SDS011;5280;42.600;23.556;2022-12-20T02:50:19;8.57;;;5.97;;
10465;SDS011;5280;42.600;23.556;2022-12-20T02:52:49;9.23;;;6.03;;
10465;SDS011;5280;42.600;23.556;2022-12-20T02:55:16;9.07;;;6.33;;
10465;SDS011;5280;42.600;23.556;2022-12-20T02:57:47;11.00;;;5.90;;
10465;SDS011;5280;42.600;23.556;2022-12-20T03:00:22;7.60;;;6.00;;
10465;SDS011;5280;42.600;23.556;2022-12-20T03:02:49;8.63;;;6.13;;
10465;SDS011;5280;42.600;23.556;2022-12-20T03:05:35;10.43;;;6.40;;
10465;SDS011;5280;42.600;23.556;2022-12-20T03:08:10;8.83;;;6.33;;
10465;SDS011;5280;42.600;23.556;2022-12-20T03:10:37;9.30;;;6.37;;
10465;SDS011;5280;42.600;23.556;2022-12-20T03:13:03;8.83;;;6.20;;
10465;SDS011;5280;42.600;23.556;2022-12-20T03:15:38;11.70;;;6.37;;
10465;SDS011;5280;42.600;23.556;2022-12-20T03:18:05;9.67;;;6.17;;
10465;SDS011;5280;42.600;23.556;2022-12-20T03:20:33;9.50;;;6.10;;
10465;SDS011;5280;42.600;23.556;2022-12-20T03:23:00;10.77;;;6.07;;
10465;SDS011;5280;42.600;23.556;2022-12-20T03:25:27;9.27;;;6.03;;
10465;SDS011;5280;42.600;23.556;2022-12-20T03:27:54;9.13;;;6.30;;
10465;SDS011;5280;42.600;23.556;2022-12-20T03:30:21;8.90;;;5.80;;
10465;SDS011;5280;42.600;23.556;2022-12-20T03:32:49;8.27;;;5.70;;
10465;SDS011;5280;42.600;23.556;2022-12-20T03:35:16;11.13;;;6.57;;
10465;SDS011;5280;42.600;23.556;2022-12-20T03:37:43;9.10;;;6.27;;
10465;SDS011;5280;42.600;23.556;2022-12-20T03:40:10;10.17;;;6.47;;
10465;SDS011;5280;42.600;23.556;2022-12-20T03:42:37;10.17;;;6.67;;
10465;SDS011;5280;42.600;23.556;2022-12-20T03:45:05;8.87;;;6.50;;
10465;SDS011;5280;42.600;23.556;2022-12-20T03:47:32;9.53;;;6.30;;
10465;SDS011;5280;42.600;23.556;2022-12-20T03:50:00;10.10;;;6.60;;
10465;SDS011;5280;42.600;23.556;2022-12-20T03:52:27;11.93;;;6.90;;
10465;SDS011;5280;42.600;23.556;2022-12-20T03:54:54;8.13;;;5.63;;
10465;SDS011;5280;42.600;23.556;2022-12-20T03:57:21;7.50;;;5.63;;
10465;SDS011;5280;42.600;23.556;2022-12-20T03:59:48;9.43;;;5.83;;
10465;SDS011;5280;42.600;23.556;2022-12-20T04:02:15;10.23;;;6.47;;
10465;SDS011;5280;42.600;23.556;2022-12-20T04:04:42;9.83;;;6.27;;
10465;SDS011;5280;42.600;23.556;2022-12-20T04:07:10;11.57;;;6.33;;
10465;SDS011;5280;42.600;23.556;2022-12-20T04:09:37;9.20;;;6.37;;
10465;SDS011;5280;42.600;23.556;2022-12-20T04:12:04;9.17;;;6.33;;
10465;SDS011;5280;42.600;23.556;2022-12-20T04:14:31;9.23;;;6.67;;
10465;SDS011;5280;42.600;23.556;2022-12-20T04:16:57;9.23;;;6.47;;
10465;SDS011;5280;42.600;23.556;2022-12-20T04:19:24;8.73;;;6.10;;
10465;SDS011;5280;42.600;23.556;2022-12-20T04:21:51;11.63;;;6.83;;
10465;SDS011;5280;42.600;23.556;2022-12-20T04:24:21;7.83;;;5.93;;
10465;SDS011;5280;42.600;23.556;2022-12-20T04:26:49;8.07;;;6.03;;
10465;SDS011;5280;42.600;23.556;2022-12-20T04:29:16;9.53;;;6.17;;
10465;SDS011;5280;42.600;23.556;2022-12-20T04:31:43;9.53;;;6.07;;
10465;SDS011;5280;42.600;23.556;2022-12-20T04:34:10;6.80;;;5.17;;
10465;SDS011;5280;42.600;23.556;2022-12-20T04:36:39;9.50;;;5.93;;
10465;SDS011;5280;42.600;23.556;2022-12-20T04:39:06;8.97;;;5.60;;
10465;SDS011;5280;42.600;23.556;2022-12-20T04:41:34;9.37;;;5.77;;
10465;SDS011;5280;42.600;23.556;2022-12-20T04:44:01;7.83;;;5.43;;
10465;SDS011;5280;42.600;23.556;2022-12-20T04:46:28;9.43;;;6.00;;
10465;SDS011;5280;42.600;23.556;2022-12-20T04:48:55;9.70;;;6.37;;
10465;SDS011;5280;42.600;23.556;2022-12-20T04:51:22;9.60;;;6.07;;
10465;SDS011;5280;42.600;23.556;2022-12-20T04:53:48;7.47;;;5.60;;
10465;SDS011;5280;42.600;23.556;2022-12-20T04:56:15;8.40;;;5.73;;
10465;SDS011;5280;42.600;23.556;2022-12-20T04:58:45;8.87;;;6.07;;
10465;SDS011;5280;42.600;23.556;2022-12-20T05:01:13;8.30;;;5.50;;
10465;SDS011;5280;42.600;23.556;2022-12-20T05:03:40;8.00;;;6.13;;
10465;SDS011;5280;42.600;23.556;2022-12-20T05:06:07;9.83;;;6.13;;
10465;SDS011;5280;42.600;23.556;2022-12-20T05:08:34;7.63;;;5.37;;
10465;SDS011;5280;42.600;23.556;2022-12-20T05:11:01;13.40;;;6.13;;
10465;SDS011;5280;42.600;23.556;2022-12-20T05:13:29;8.27;;;6.00;;
10465;SDS011;5280;42.600;23.556;2022-12-20T05:15:58;9.63;;;6.20;;
10465;SDS011;5280;42.600;23.556;2022-12-20T05:18:25;9.07;;;6.10;;
10465;SDS011;5280;42.600;23.556;2022-12-20T05:20:53;8.63;;;6.43;;
10465;SDS011;5280;42.600;23.556;2022-12-20T05:23:35;8.27;;;6.13;;
10465;SDS011;5280;42.600;23.556;2022-12-20T05:26:20;8.83;;;6.00;;
10465;SDS011;5280;42.600;23.556;2022-12-20T05:28:48;8.07;;;5.90;;
10465;SDS011;5280;42.600;23.556;2022-12-20T05:31:17;10.57;;;6.10;;
10465;SDS011;5280;42.600;23.556;2022-12-20T05:33:44;10.20;;;5.87;;
10465;SDS011;5280;42.600;23.556;2022-12-20T05:36:11;9.83;;;6.30;;
10465;SDS011;5280;42.600;23.556;2022-12-20T05:38:38;8.53;;;5.67;;
10465;SDS011;5280;42.600;23.556;2022-12-20T05:41:04;10.47;;;6.07;;
10465;SDS011;5280;42.600;23.556;2022-12-20T05:43:31;8.53;;;5.90;;
10465;SDS011;5280;42.600;23.556;2022-12-20T05:45:58;10.50;;;6.67;;
10465;SDS011;5280;42.600;23.556;2022-12-20T05:48:26;10.87;;;6.07;;
10465;SDS011;5280;42.600;23.556;2022-12-20T05:50:53;8.77;;;5.73;;
10465;SDS011;5280;42.600;23.556;2022-12-20T05:53:20;9.23;;;6.33;;
10465;SDS011;5280;42.600;23.556;2022-12-20T05:55:47;8.43;;;5.60;;
10465;SDS011;5280;42.600;23.556;2022-12-20T05:58:15;10.73;;;6.27;;
10465;SDS011;5280;42.600;23.556;2022-12-20T06:00:42;7.40;;;5.30;;
10465;SDS011;5280;42.600;23.556;2022-12-20T06:03:10;8.77;;;6.03;;
10465;SDS011;5280;42.600;23.556;2022-12-20T06:05:40;9.23;;;6.30;;
10465;SDS011;5280;42.600;23.556;2022-12-20T06:08:08;10.07;;;6.00;;
10465;SDS011;5280;42.600;23.556;2022-12-20T06:10:35;6.40;;;4.97;;
10465;SDS011;5280;42.600;23.556;2022-12-20T06:13:02;9.27;;;5.57;;
10465;SDS011;5280;42.600;23.556;2022-12-20T06:15:29;6.63;;;4.97;;
10465;SDS011;5280;42.600;23.556;2022-12-20T06:17:56;9.23;;;5.87;;
10465;SDS011;5280;42.600;23.556;2022-12-20T06:20:23;6.37;;;4.87;;
10465;SDS011;5280;42.600;23.556;2022-12-20T06:22:52;7.13;;;5.23;;
10465;SDS011;5280;42.600;23.556;2022-12-20T06:25:18;9.93;;;5.33;;
10465;SDS011;5280;42.600;23.556;2022-12-20T06:27:45;8.13;;;5.50;;
10465;SDS011;5280;42.600;23.556;2022-12-20T06:30:12;8.90;;;5.80;;
10465;SDS011;5280;42.600;23.556;2022-12-20T06:32:40;8.77;;;5.03;;
10465;SDS011;5280;42.600;23.556;2022-12-20T06:35:07;7.00;;;4.97;;
10465;SDS011;5280;42.600;23.556;2022-12-20T06:37:34;6.60;;;4.83;;
10465;SDS011;5280;42.600;23.556;2022-12-20T06:40:03;9.00;;;5.50;;
10465;SDS011;5280;42.600;23.556;2022-12-20T06:42:30;9.10;;;5.67;;
10465;SDS011;5280;42.600;23.556;2022-12-20T06:44:57;7.77;;;5.50;;
10465;SDS011;5280;42.600;23.556;2022-12-20T06:47:24;8.93;;;5.40;;
10465;SDS011;5280;42.600;23.556;2022-12-20T06:49:51;9.30;;;5.63;;
10465;SDS011;5280;42.600;23.556;2022-12-20T06:52:17;10.80;;;5.93;;
10465;SDS011;5280;42.600;23.556;2022-12-20T06:54:44;11.47;;;5.87;;
10465;SDS011;5280;42.600;23.556;2022-12-20T06:57:12;8.77;;;5.90;;
10465;SDS011;5280;42.600;23.556;2022-12-20T06:59:39;7.77;;;5.70;;
10465;SDS011;5280;42.600;23.556;2022-12-20T07:02:06;6.67;;;5.23;;
10465;SDS011;5280;42.600;23.556;2022-12-20T07:04:34;8.83;;;5.80;;
10465;SDS011;5280;42.600;23.556;2022-12-20T07:07:01;9.57;;;5.47;;
10465;SDS011;5280;42.600;23.556;2022-12-20T07:09:28;7.83;;;5.83;;
10465;SDS011;5280;42.600;23.556;2022-12-20T07:11:56;8.57;;;5.93;;
10465;SDS011;5280;42.600;23.556;2022-12-20T07:14:24;9.97;;;5.93;;
10465;SDS011;5280;42.600;23.556;2022-12-20T07:16:51;10.83;;;5.60;;
10465;SDS011;5280;42.600;23.556;2022-12-20T07:19:18;7.33;;;5.37;;
10465;SDS011;5280;42.600;23.556;2022-12-20T07:21:46;6.63;;;4.73;;
10465;SDS011;5280;42.600;23.556;2022-12-20T07:24:12;7.00;;;5.43;;
10465;SDS011;5280;42.600;23.556;2022-12-20T07:26:39;7.77;;;5.30;;
10465;SDS011;5280;42.600;23.556;2022-12-20T07:29:06;9.17;;;5.70;;
10465;SDS011;5280;42.600;23.556;2022-12-20T07:31:34;9.93;;;5.97;;
10465;SDS011;5280;42.600;23.556;2022-12-20T07:34:01;8.47;;;4.97;;
10465;SDS011;5280;42.600;23.556;2022-12-20T07:36:27;5.93;;;4.90;;
10465;SDS011;5280;42.600;23.556;2022-12-20T07:38:54;8.50;;;6.10;;
10465;SDS011;5280;42.600;23.556;2022-12-20T07:41:21;9.53;;;5.73;;
10465;SDS011;5280;42.600;23.556;2022-12-20T07:44:01;9.97;;;5.77;;
10465;SDS011;5280;42.600;23.556;2022-12-20T07:46:29;9.37;;;5.53;;
10465;SDS011;5280;42.600;23.556;2022-12-20T07:48:57;8.77;;;5.57;;
10465;SDS011;5280;42.600;23.556;2022-12-20T07:51:24;8.10;;;5.60;;
10465;SDS011;5280;42.600;23.556;2022-12-20T07:53:58;7.30;;;5.47;;
10465;SDS011;5280;42.600;23.556;2022-12-20T07:56:29;7.13;;;5.30;;
10465;SDS011;5280;42.600;23.556;2022-12-20T07:58:58;6.40;;;5.10;;
10465;SDS011;5280;42.600;23.556;2022-12-20T08:01:26;6.67;;;5.27;;
10465;SDS011;5280;42.600;23.556;2022-12-20T08:03:55;9.17;;;5.60;;
10465;SDS011;5280;42.600;23.556;2022-12-20T08:06:28;7.33;;;5.03;;
10465;SDS011;5280;42.600;23.556;2022-12-20T08:08:56;8.20;;;5.77;;
10465;SDS011;5280;42.600;23.556;2022-12-20T08:11:25;9.07;;;5.83;;
10465;SDS011;5280;42.600;23.556;2022-12-20T08:13:54;6.37;;;4.93;;
10465;SDS011;5280;42.600;23.556;2022-12-20T08:16:21;8.27;;;4.87;;
10465;SDS011;5280;42.600;23.556;2022-12-20T08:18:48;9.37;;;5.33;;
10465;SDS011;5280;42.600;23.556;2022-12-20T08:21:16;8.40;;;5.23;;
10465;SDS011;5280;42.600;23.556;2022-12-20T08:23:43;8.07;;;5.27;;
10465;SDS011;5280;42.600;23.556;2022-12-20T08:26:10;7.43;;;4.90;;
10465;SDS011;5280;42.600;23.556;2022-12-20T08:28:37;7.50;;;4.73;;
10465;SDS011;5280;42.600;23.556;2022-12-20T08:31:04;7.73;;;5.37;;
10465;SDS011;5280;42.600;23.556;2022-12-20T08:33:33;9.60;;;5.70;;
10465;SDS011;5280;42.600;23.556;2022-12-20T08:36:02;7.33;;;5.07;;
10465;SDS011;5280;42.600;23.556;2022-12-20T08:38:32;7.17;;;4.73;;
10465;SDS011;5280;42.600;23.556;2022-12-20T08:41:00;7.37;;;5.47;;
10465;SDS011;5280;42.600;23.556;2022-12-20T08:43:29;7.70;;;5.03;;
10465;SDS011;5280;42.600;23.556;2022-12-20T08:45:56;7.10;;;5.13;;
10465;SDS011;5280;42.600;23.556;2022-12-20T08:48:25;9.50;;;5.53;;
10465;SDS011;5280;42.600;23.556;2022-12-20T08:50:53;7.73;;;5.73;;
10465;SDS011;5280;42.600;23.556;2022-12-20T08:53:20;8.17;;;5.37;;
10465;SDS011;5280;42.600;23.556;2022-12-20T08:55:49;8.00;;;5.50;;
10465;SDS011;5280;42.600;23.556;2022-12-20T08:58:16;7.97;;;5.23;;
10465;SDS011;5280;42.600;23.556;2022-12-20T09:00:42;7.50;;;5.63;;
10465;SDS011;5280;42.600;23.556;2022-12-20T09:03:10;8.03;;;5.23;;
10465;SDS011;5280;42.600;23.556;2022-12-20T09:05:42;7.93;;;5.20;;
10465;SDS011;5280;42.600;23.556;2022-12-20T09:08:09;6.53;;;4.87;;
10465;SDS011;5280;42.600;23.556;2022-12-20T09:10:36;6.73;;;5.13;;
10465;SDS011;5280;42.600;23.556;2022-12-20T09:13:04;7.53;;;4.93;;
10465;SDS011;5280;42.600;23.556;2022-12-20T09:15:32;7.93;;;5.20;;
10465;SDS011;5280;42.600;23.556;2022-12-20T09:17:59;7.17;;;5.30;;
10465;SDS011;5280;42.600;23.556;2022-12-20T09:20:26;8.27;;;4.77;;
10465;SDS011;5280;42.600;23.556;2022-12-20T09:22:53;6.57;;;4.67;;
10465;SDS011;5280;42.600;23.556;2022-12-20T09:25:20;7.80;;;5.10;;
10465;SDS011;5280;42.600;23.556;2022-12-20T09:27:47;6.57;;;4.90;;
10465;SDS011;5280;42.600;23.556;2022-12-20T09:30:15;6.77;;;5.00;;
10465;SDS011;5280;42.600;23.556;2022-12-20T09:32:42;6.17;;;4.60;;
10465;SDS011;5280;42.600;23.556;2022-12-20T09:35:10;6.80;;;4.70;;
10465;SDS011;5280;42.600;23.556;2022-12-20T09:37:37;5.23;;;4.50;;
10465;SDS011;5280;42.600;23.556;2022-12-20T09:40:04;7.20;;;4.70;;
10465;SDS011;5280;42.600;23.556;2022-12-20T09:42:33;7.63;;;4.20;;
10465;SDS011;5280;42.600;23.556;2022-12-20T09:45:04;5.57;;;4.67;;
10465;SDS011;5280;42.600;23.556;2022-12-20T09:47:36;7.03;;;4.63;;
10465;SDS011;5280;42.600;23.556;2022-12-20T09:50:04;5.37;;;3.90;;
10465;SDS011;5280;42.600;23.556;2022-12-20T09:52:44;5.27;;;4.03;;
10465;SDS011;5280;42.600;23.556;2022-12-20T09:55:22;5.37;;;3.83;;
10465;SDS011;5280;42.600;23.556;2022-12-20T09:58:00;4.37;;;3.17;;
10465;SDS011;5280;42.600;23.556;2022-12-20T10:00:44;4.50;;;3.70;;
10465;SDS011;5280;42.600;23.556;2022-12-20T10:03:15;7.87;;;3.40;;
10465;SDS011;5280;42.600;23.556;2022-12-20T10:05:46;5.80;;;3.60;;
10465;SDS011;5280;42.600;23.556;2022-12-20T10:08:23;5.30;;;3.50;;
10465;SDS011;5280;42.600;23.556;2022-12-20T10:11:08;5.80;;;3.57;;
10465;SDS011;5280;42.600;23.556;2022-12-20T10:13:46;5.50;;;3.87;;
10465;SDS011;5280;42.600;23.556;2022-12-20T10:16:26;4.70;;;3.43;;
10465;SDS011;5280;42.600;23.556;2022-12-20T10:19:05;8.10;;;3.83;;
10465;SDS011;5280;42.600;23.556;2022-12-20T10:21:48;5.57;;;3.53;;
10465;SDS011;5280;42.600;23.556;2022-12-20T10:24:18;5.37;;;3.17;;
10465;SDS011;5280;42.600;23.556;2022-12-20T10:26:47;4.70;;;3.40;;
10465;SDS011;5280;42.600;23.556;2022-12-20T10:29:15;5.53;;;3.37;;
10465;SDS011;5280;42.600;23.556;2022-12-20T10:31:42;4.13;;;3.23;;
10465;SDS011;5280;42.600;23.556;2022-12-20T10:34:10;5.57;;;3.50;;
10465;SDS011;5280;42.600;23.556;2022-12-20T10:36:37;4.60;;;3.20;;
10465;SDS011;5280;42.600;23.556;2022-12-20T10:39:04;4.87;;;3.30;;
10465;SDS011;5280;42.600;23.556;2022-12-20T10:41:32;2.80;;;2.50;;
10465;SDS011;5280;42.600;23.556;2022-12-20T10:44:15;6.13;;;3.80;;
10465;SDS011;5280;42.600;23.556;2022-12-20T10:46:46;4.10;;;3.23;;
10465;SDS011;5280;42.600;23.556;2022-12-20T10:49:26;4.87;;;3.57;;
10465;SDS011;5280;42.600;23.556;2022-12-20T10:51:57;3.93;;;2.40;;
10465;SDS011;5280;42.600;23.556;2022-12-20T10:54:28;4.50;;;3.10;;
10465;SDS011;5280;42.600;23.556;2022-12-20T10:56:56;4.43;;;3.00;;
10465;SDS011;5280;42.600;23.556;2022-12-20T10:59:28;3.93;;;3.13;;
10465;SDS011;5280;42.600;23.556;2022-12-20T11:01:58;4.57;;;3.23;;
10465;SDS011;5280;42.600;23.556;2022-12-20T11:04:27;3.60;;;3.23;;
10465;SDS011;5280;42.600;23.556;2022-12-20T11:06:56;4.20;;;3.07;;
10465;SDS011;5280;42.600;23.556;2022-12-20T11:09:25;3.63;;;3.23;;
10465;SDS011;5280;42.600;23.556;2022-12-20T11:11:58;3.33;;;3.00;;
10465;SDS011;5280;42.600;23.556;2022-12-20T11:14:29;4.23;;;3.43;;
10465;SDS011;5280;42.600;23.556;2022-12-20T11:16:58;4.57;;;3.43;;
10465;SDS011;5280;42.600;23.556;2022-12-20T11:19:33;5.10;;;3.50;;
10465;SDS011;5280;42.600;23.556;2022-12-20T11:22:17;4.57;;;3.57;;
10465;SDS011;5280;42.600;23.556;2022-12-20T11:24:56;4.53;;;3.50;;
10465;SDS011;5280;42.600;23.556;2022-12-20T11:27:34;8.00;;;3.80;;
10465;SDS011;5280;42.600;23.556;2022-12-20T11:30:15;4.37;;;3.83;;
10465;SDS011;5280;42.600;23.556;2022-12-20T11:32:57;3.90;;;3.07;;
10465;SDS011;5280;42.600;23.556;2022-12-20T11:35:44;4.63;;;3.63;;
10465;SDS011;5280;42.600;23.556;2022-12-20T11:38:21;5.60;;;3.80;;
10465;SDS011;5280;42.600;23.556;2022-12-20T11:41:03;3.87;;;3.00;;
10465;SDS011;5280;42.600;23.556;2022-12-20T11:43:56;4.30;;;3.27;;
10465;SDS011;5280;42.600;23.556;2022-12-20T11:46:35;5.27;;;3.47;;
10465;SDS011;5280;42.600;23.556;2022-12-20T11:49:28;3.93;;;3.10;;
10465;SDS011;5280;42.600;23.556;2022-12-20T11:52:20;5.83;;;3.57;;
10465;SDS011;5280;42.600;23.556;2022-12-20T11:54:55;3.43;;;2.90;;
10465;SDS011;5280;42.600;23.556;2022-12-20T11:57:31;4.90;;;3.70;;
10465;SDS011;5280;42.600;23.556;2022-12-20T12:00:06;5.37;;;3.53;;
10465;SDS011;5280;42.600;23.556;2022-12-20T12:02:40;4.37;;;3.67;;
10465;SDS011;5280;42.600;23.556;2022-12-20T12:05:15;4.70;;;3.17;;
10465;SDS011;5280;42.600;23.556;2022-12-20T12:07:48;5.30;;;3.50;;
10465;SDS011;5280;42.600;23.556;2022-12-20T12:10:21;4.00;;;3.40;;
10465;SDS011;5280;42.600;23.556;2022-12-20T12:12:52;4.73;;;3.37;;
10465;SDS011;5280;42.600;23.556;2022-12-20T12:15:26;5.03;;;3.50;;
10465;SDS011;5280;42.600;23.556;2022-12-20T12:17:58;3.40;;;3.00;;
10465;SDS011;5280;42.600;23.556;2022-12-20T12:20:28;3.23;;;2.90;;
10465;SDS011;5280;42.600;23.556;2022-12-20T12:23:04;5.90;;;3.27;;
10465;SDS011;5280;42.600;23.556;2022-12-20T12:25:38;4.63;;;3.10;;
10465;SDS011;5280;42.600;23.556;2022-12-20T12:28:05;4.07;;;3.17;;
10465;SDS011;5280;42.600;23.556;2022-12-20T12:30:34;4.47;;;3.40;;
10465;SDS011;5280;42.600;23.556;2022-12-20T12:33:06;4.27;;;3.03;;
10465;SDS011;5280;42.600;23.556;2022-12-20T12:35:49;3.33;;;2.80;;
10465;SDS011;5280;42.600;23.556;2022-12-20T12:38:53;3.80;;;2.90;;
10465;SDS011;5280;42.600;23.556;2022-12-20T12:41:48;3.23;;;2.70;;
10465;SDS011;5280;42.600;23.556;2022-12-20T12:44:38;6.03;;;2.93;;
10465;SDS011;5280;42.600;23.556;2022-12-20T12:47:12;4.07;;;3.03;;
10465;SDS011;5280;42.600;23.556;2022-12-20T12:49:42;3.87;;;3.00;;
10465;SDS011;5280;42.600;23.556;2022-12-20T12:52:25;3.53;;;2.67;;
10465;SDS011;5280;42.600;23.556;2022-12-20T12:54:56;3.70;;;3.20;;
10465;SDS011;5280;42.600;23.556;2022-12-20T12:57:23;3.63;;;2.93;;
10465;SDS011;5280;42.600;23.556;2022-12-20T12:59:50;4.33;;;2.60;;
10465;SDS011;5280;42.600;23.556;2022-12-20T13:02:32;3.40;;;3.03;;
10465;SDS011;5280;42.600;23.556;2022-12-20T13:05:00;3.50;;;2.70;;
10465;SDS011;5280;42.600;23.556;2022-12-20T13:07:48;5.17;;;2.80;;
10465;SDS011;5280;42.600;23.556;2022-12-20T13:13:35;3.70;;;2.60;;
10465;SDS011;5280;42.600;23.556;2022-12-20T13:16:08;2.60;;;2.30;;
10465;SDS011;5280;42.600;23.556;2022-12-20T13:21:38;3.47;;;2.83;;
10465;SDS011;5280;42.600;23.556;2022-12-20T13:27:25;5.20;;;3.03;;
10465;SDS011;5280;42.600;23.556;2022-12-20T13:30:00;4.17;;;3.20;;
10465;SDS011;5280;42.600;23.556;2022-12-20T13:35:54;4.90;;;3.20;;
10465;SDS011;5280;42.600;23.556;2022-12-20T13:41:27;11.03;;;3.70;;
10465;SDS011;5280;42.600;23.556;2022-12-20T13:44:02;8.10;;;3.23;;
10465;SDS011;5280;42.600;23.556;2022-12-20T13:46:45;4.30;;;2.83;;
10465;SDS011;5280;42.600;23.556;2022-12-20T13:49:18;3.77;;;2.60;;
10465;SDS011;5280;42.600;23.556;2022-12-20T13:52:05;4.73;;;2.60;;
10465;SDS011;5280;42.600;23.556;2022-12-20T13:54:38;4.03;;;3.07;;
10465;SDS011;5280;42.600;23.556;2022-12-20T13:57:07;3.37;;;2.63;;
10465;SDS011;5280;42.600;23.556;2022-12-20T13:59:42;3.50;;;2.77;;
10465;SDS011;5280;42.600;23.556;2022-12-20T14:02:16;4.10;;;2.97;;
10465;SDS011;5280;42.600;23.556;2022-12-20T14:04:45;3.70;;;2.73;;
10465;SDS011;5280;42.600;23.556;2022-12-20T14:07:21;3.67;;;3.27;;
10465;SDS011;5280;42.600;23.556;2022-12-20T14:09:53;2.80;;;2.50;;
10465;SDS011;5280;42.600;23.556;2022-12-20T14:12:21;4.13;;;2.90;;
10465;SDS011;5280;42.600;23.556;2022-12-20T14:14:49;3.30;;;2.93;;
10465;SDS011;5280;42.600;23.556;2022-12-20T14:17:19;3.83;;;2.93;;
10465;SDS011;5280;42.600;23.556;2022-12-20T14:20:00;3.10;;;2.60;;
10465;SDS011;5280;42.600;23.556;2022-12-20T14:22:47;3.30;;;2.80;;
10465;SDS011;5280;42.600;23.556;2022-12-20T14:25:22;3.93;;;2.80;;
10465;SDS011;5280;42.600;23.556;2022-12-20T14:27:54;3.30;;;3.00;;
10465;SDS011;5280;42.600;23.556;2022-12-20T14:30:25;3.37;;;2.83;;
10465;SDS011;5280;42.600;23.556;2022-12-20T14:32:57;3.27;;;2.87;;
10465;SDS011;5280;42.600;23.556;2022-12-20T14:35:24;3.97;;;2.90;;
10465;SDS011;5280;42.600;23.556;2022-12-20T14:37:54;2.90;;;2.40;;
10465;SDS011;5280;42.600;23.556;2022-12-20T14:40:23;3.10;;;2.60;;
10465;SDS011;5280;42.600;23.556;2022-12-20T14:42:51;3.70;;;2.87;;
10465;SDS011;5280;42.600;23.556;2022-12-20T14:45:19;3.23;;;2.90;;
10465;SDS011;5280;42.600;23.556;2022-12-20T14:47:52;6.33;;;4.20;;
10465;SDS011;5280;42.600;23.556;2022-12-20T14:50:23;15.77;;;8.87;;
10465;SDS011;5280;42.600;23.556;2022-12-20T14:52:53;5.20;;;3.40;;
10465;SDS011;5280;42.600;23.556;2022-12-20T14:55:20;3.97;;;3.07;;
10465;SDS011;5280;42.600;23.556;2022-12-20T14:57:50;6.03;;;3.10;;
10465;SDS011;5280;42.600;23.556;2022-12-20T15:00:19;3.80;;;2.97;;
10465;SDS011;5280;42.600;23.556;2022-12-20T15:02:50;3.10;;;2.77;;
10465;SDS011;5280;42.600;23.556;2022-12-20T15:05:38;3.50;;;2.37;;
10465;SDS011;5280;42.600;23.556;2022-12-20T15:08:10;2.80;;;2.50;;
10465;SDS011;5280;42.600;23.556;2022-12-20T15:10:38;3.43;;;2.40;;
10465;SDS011;5280;42.600;23.556;2022-12-20T15:13:10;3.87;;;2.43;;
10465;SDS011;5280;42.600;23.556;2022-12-20T15:15:38;3.40;;;2.50;;
10465;SDS011;5280;42.600;23.556;2022-12-20T15:18:08;2.93;;;2.20;;
10465;SDS011;5280;42.600;23.556;2022-12-20T15:20:39;3.30;;;2.03;;
10465;SDS011;5280;42.600;23.556;2022-12-20T15:23:09;3.03;;;2.17;;
10465;SDS011;5280;42.600;23.556;2022-12-20T15:25:39;2.17;;;1.97;;